sensor_id;sensor_type;location;lat;lon;timestamp;temperature;humidity
27492;DHT22;14927;51.210;6.838;2023-05-29T00:01:14;21.90;38.60
27492;DHT22;14927;51.210;6.838;2023-05-29T00:04:02;21.80;38.70
27492;DHT22;14927;51.210;6.838;2023-05-29T00:06:48;21.80;38.70
27492;DHT22;14927;51.210;6.838;2023-05-29T00:09:33;21.70;38.90
27492;DHT22;14927;51.210;6.838;2023-05-29T00:12:18;21.70;39.00
27492;DHT22;14927;51.210;6.838;2023-05-29T00:15:03;21.60;39.30
27492;DHT22;14927;51.210;6.838;2023-05-29T00:17:48;21.50;39.30
27492;DHT22;14927;51.210;6.838;2023-05-29T00:20:33;21.50;39.50
27492;DHT22;14927;51.210;6.838;2023-05-29T00:23:19;21.40;39.40
27492;DHT22;14927;51.210;6.838;2023-05-29T00:26:05;21.40;39.50
27492;DHT22;14927;51.210;6.838;2023-05-29T00:28:50;21.40;39.70
27492;DHT22;14927;51.210;6.838;2023-05-29T00:31:35;21.30;39.70
27492;DHT22;14927;51.210;6.838;2023-05-29T00:34:22;21.30;39.90
27492;DHT22;14927;51.210;6.838;2023-05-29T00:37:10;21.20;40.00
27492;DHT22;14927;51.210;6.838;2023-05-29T00:39:58;21.10;40.10
27492;DHT22;14927;51.210;6.838;2023-05-29T00:42:43;21.10;40.10
27492;DHT22;14927;51.210;6.838;2023-05-29T00:45:28;21.00;40.30
27492;DHT22;14927;51.210;6.838;2023-05-29T00:48:15;21.00;40.50
27492;DHT22;14927;51.210;6.838;2023-05-29T00:50:59;21.00;40.50
27492;DHT22;14927;51.210;6.838;2023-05-29T00:53:44;20.90;40.60
27492;DHT22;14927;51.210;6.838;2023-05-29T00:56:31;20.90;40.80
27492;DHT22;14927;51.210;6.838;2023-05-29T00:59:16;20.80;40.90
27492;DHT22;14927;51.210;6.838;2023-05-29T01:02:03;20.80;41.10
27492;DHT22;14927;51.210;6.838;2023-05-29T01:04:53;20.70;41.20
27492;DHT22;14927;51.210;6.838;2023-05-29T01:07:38;20.70;40.80
27492;DHT22;14927;51.210;6.838;2023-05-29T01:10:23;20.70;41.70
27492;DHT22;14927;51.210;6.838;2023-05-29T01:13:18;20.60;41.40
27492;DHT22;14927;51.210;6.838;2023-05-29T01:16:21;20.60;41.70
27492;DHT22;14927;51.210;6.838;2023-05-29T01:25:11;20.50;42.20
27492;DHT22;14927;51.210;6.838;2023-05-29T01:28:04;20.40;42.70
27492;DHT22;14927;51.210;6.838;2023-05-29T01:30:51;20.40;42.70
27492;DHT22;14927;51.210;6.838;2023-05-29T01:33:40;20.40;42.80
27492;DHT22;14927;51.210;6.838;2023-05-29T01:36:25;20.30;43.30
27492;DHT22;14927;51.210;6.838;2023-05-29T01:39:10;20.20;43.30
27492;DHT22;14927;51.210;6.838;2023-05-29T01:41:56;20.30;43.60
27492;DHT22;14927;51.210;6.838;2023-05-29T01:44:40;20.10;43.70
27492;DHT22;14927;51.210;6.838;2023-05-29T01:47:26;20.10;43.90
27492;DHT22;14927;51.210;6.838;2023-05-29T01:50:13;20.00;44.10
27492;DHT22;14927;51.210;6.838;2023-05-29T01:53:00;20.00;44.40
27492;DHT22;14927;51.210;6.838;2023-05-29T01:55:44;19.90;44.50
27492;DHT22;14927;51.210;6.838;2023-05-29T01:58:30;19.90;44.70
27492;DHT22;14927;51.210;6.838;2023-05-29T02:01:15;19.90;44.80
27492;DHT22;14927;51.210;6.838;2023-05-29T02:04:00;19.80;44.90
27492;DHT22;14927;51.210;6.838;2023-05-29T02:06:45;20.00;45.30
27492;DHT22;14927;51.210;6.838;2023-05-29T02:09:30;19.70;45.30
27492;DHT22;14927;51.210;6.838;2023-05-29T02:12:15;19.60;45.40
27492;DHT22;14927;51.210;6.838;2023-05-29T02:15:03;19.60;45.50
27492;DHT22;14927;51.210;6.838;2023-05-29T02:17:49;19.50;45.60
27492;DHT22;14927;51.210;6.838;2023-05-29T02:20:43;19.40;45.40
27492;DHT22;14927;51.210;6.838;2023-05-29T02:23:27;19.20;45.40
27492;DHT22;14927;51.210;6.838;2023-05-29T02:26:12;19.40;45.60
27492;DHT22;14927;51.210;6.838;2023-05-29T02:28:59;19.30;45.70
27492;DHT22;14927;51.210;6.838;2023-05-29T02:31:49;19.30;45.80
27492;DHT22;14927;51.210;6.838;2023-05-29T02:34:34;19.20;45.70
27492;DHT22;14927;51.210;6.838;2023-05-29T02:37:20;19.20;45.60
27492;DHT22;14927;51.210;6.838;2023-05-29T02:40:09;19.10;45.70
27492;DHT22;14927;51.210;6.838;2023-05-29T02:42:55;19.10;45.70
27492;DHT22;14927;51.210;6.838;2023-05-29T02:45:40;19.00;45.80
27492;DHT22;14927;51.210;6.838;2023-05-29T02:48:28;19.20;45.90
27492;DHT22;14927;51.210;6.838;2023-05-29T02:51:13;18.90;45.90
27492;DHT22;14927;51.210;6.838;2023-05-29T02:53:59;18.80;45.90
27492;DHT22;14927;51.210;6.838;2023-05-29T02:56:46;18.80;46.10
27492;DHT22;14927;51.210;6.838;2023-05-29T02:59:31;18.70;46.20
27492;DHT22;14927;51.210;6.838;2023-05-29T03:02:16;18.70;46.20
27492;DHT22;14927;51.210;6.838;2023-05-29T03:05:05;18.80;46.50
27492;DHT22;14927;51.210;6.838;2023-05-29T03:07:50;18.60;46.50
27492;DHT22;14927;51.210;6.838;2023-05-29T03:10:36;18.60;46.60
27492;DHT22;14927;51.210;6.838;2023-05-29T03:13:28;18.50;46.80
27492;DHT22;14927;51.210;6.838;2023-05-29T03:16:12;18.50;46.80
27492;DHT22;14927;51.210;6.838;2023-05-29T03:19:00;18.70;47.20
27492;DHT22;14927;51.210;6.838;2023-05-29T03:21:45;18.60;47.00
27492;DHT22;14927;51.210;6.838;2023-05-29T03:24:30;18.30;47.00
27492;DHT22;14927;51.210;6.838;2023-05-29T03:27:14;18.00;47.10
27492;DHT22;14927;51.210;6.838;2023-05-29T03:30:03;18.30;47.40
27492;DHT22;14927;51.210;6.838;2023-05-29T03:32:48;18.20;47.80
27492;DHT22;14927;51.210;6.838;2023-05-29T03:35:33;18.10;47.30
27492;DHT22;14927;51.210;6.838;2023-05-29T03:38:21;18.10;47.40
27492;DHT22;14927;51.210;6.838;2023-05-29T03:41:07;18.10;47.60
27492;DHT22;14927;51.210;6.838;2023-05-29T03:43:52;18.10;47.60
27492;DHT22;14927;51.210;6.838;2023-05-29T03:46:36;18.00;47.50
27492;DHT22;14927;51.210;6.838;2023-05-29T03:49:21;18.00;47.60
27492;DHT22;14927;51.210;6.838;2023-05-29T03:52:08;18.00;47.60
27492;DHT22;14927;51.210;6.838;2023-05-29T03:54:53;18.30;48.00
27492;DHT22;14927;51.210;6.838;2023-05-29T03:57:41;17.90;48.00
27492;DHT22;14927;51.210;6.838;2023-05-29T04:00:26;17.90;47.90
27492;DHT22;14927;51.210;6.838;2023-05-29T04:03:14;17.90;48.10
27492;DHT22;14927;51.210;6.838;2023-05-29T04:05:59;17.90;48.20
27492;DHT22;14927;51.210;6.838;2023-05-29T04:08:44;17.90;48.10
27492;DHT22;14927;51.210;6.838;2023-05-29T04:11:29;17.90;48.10
27492;DHT22;14927;51.210;6.838;2023-05-29T04:14:13;17.50;47.90
27492;DHT22;14927;51.210;6.838;2023-05-29T04:16:58;17.80;48.20
27492;DHT22;14927;51.210;6.838;2023-05-29T04:19:43;17.80;48.40
27492;DHT22;14927;51.210;6.838;2023-05-29T04:22:28;17.50;48.30
27492;DHT22;14927;51.210;6.838;2023-05-29T04:25:13;17.80;48.60
27492;DHT22;14927;51.210;6.838;2023-05-29T04:27:59;17.70;48.60
27492;DHT22;14927;51.210;6.838;2023-05-29T04:30:47;17.70;48.60
27492;DHT22;14927;51.210;6.838;2023-05-29T04:33:32;17.70;48.60
27492;DHT22;14927;51.210;6.838;2023-05-29T04:36:17;17.70;48.60
27492;DHT22;14927;51.210;6.838;2023-05-29T04:39:04;17.70;48.90
27492;DHT22;14927;51.210;6.838;2023-05-29T04:41:51;17.70;48.80
27492;DHT22;14927;51.210;6.838;2023-05-29T04:44:36;17.70;48.90
27492;DHT22;14927;51.210;6.838;2023-05-29T04:47:23;17.60;49.10
27492;DHT22;14927;51.210;6.838;2023-05-29T04:50:11;17.60;49.20
27492;DHT22;14927;51.210;6.838;2023-05-29T04:52:57;17.60;49.10
27492;DHT22;14927;51.210;6.838;2023-05-29T04:55:42;17.60;49.30
27492;DHT22;14927;51.210;6.838;2023-05-29T04:58:26;17.60;49.30
27492;DHT22;14927;51.210;6.838;2023-05-29T05:01:14;17.60;49.40
27492;DHT22;14927;51.210;6.838;2023-05-29T05:03:59;17.60;49.60
27492;DHT22;14927;51.210;6.838;2023-05-29T05:06:44;17.60;49.30
27492;DHT22;14927;51.210;6.838;2023-05-29T05:09:29;17.60;49.60
27492;DHT22;14927;51.210;6.838;2023-05-29T05:12:14;17.60;49.70
27492;DHT22;14927;51.210;6.838;2023-05-29T05:15:01;17.60;49.60
27492;DHT22;14927;51.210;6.838;2023-05-29T05:17:45;17.60;49.60
27492;DHT22;14927;51.210;6.838;2023-05-29T05:20:30;17.60;49.60
27492;DHT22;14927;51.210;6.838;2023-05-29T05:23:15;17.60;49.60
27492;DHT22;14927;51.210;6.838;2023-05-29T05:26:00;17.70;49.70
27492;DHT22;14927;51.210;6.838;2023-05-29T05:28:45;17.90;49.70
27492;DHT22;14927;51.210;6.838;2023-05-29T05:31:29;17.70;49.50
27492;DHT22;14927;51.210;6.838;2023-05-29T05:34:14;17.70;49.60
27492;DHT22;14927;51.210;6.838;2023-05-29T05:36:59;17.80;49.70
27492;DHT22;14927;51.210;6.838;2023-05-29T05:39:44;17.80;49.60
27492;DHT22;14927;51.210;6.838;2023-05-29T05:42:29;17.80;49.60
27492;DHT22;14927;51.210;6.838;2023-05-29T05:45:14;17.80;49.60
27492;DHT22;14927;51.210;6.838;2023-05-29T05:47:59;17.80;49.60
27492;DHT22;14927;51.210;6.838;2023-05-29T05:50:43;17.90;49.60
27492;DHT22;14927;51.210;6.838;2023-05-29T05:53:28;17.90;49.50
27492;DHT22;14927;51.210;6.838;2023-05-29T05:56:13;17.90;49.40
27492;DHT22;14927;51.210;6.838;2023-05-29T05:58:58;18.00;49.30
27492;DHT22;14927;51.210;6.838;2023-05-29T06:01:42;18.00;49.30
27492;DHT22;14927;51.210;6.838;2023-05-29T06:04:27;18.10;49.30
27492;DHT22;14927;51.210;6.838;2023-05-29T06:07:11;18.10;49.10
27492;DHT22;14927;51.210;6.838;2023-05-29T06:09:56;17.80;49.00
27492;DHT22;14927;51.210;6.838;2023-05-29T06:12:41;18.10;49.10
27492;DHT22;14927;51.210;6.838;2023-05-29T06:15:25;18.20;49.20
27492;DHT22;14927;51.210;6.838;2023-05-29T06:18:10;18.20;49.30
27492;DHT22;14927;51.210;6.838;2023-05-29T06:20:55;18.20;49.30
27492;DHT22;14927;51.210;6.838;2023-05-29T06:23:40;18.20;49.30
27492;DHT22;14927;51.210;6.838;2023-05-29T06:26:25;18.30;49.20
27492;DHT22;14927;51.210;6.838;2023-05-29T06:29:13;18.40;49.00
27492;DHT22;14927;51.210;6.838;2023-05-29T06:31:58;18.60;49.00
27492;DHT22;14927;51.210;6.838;2023-05-29T06:34:42;18.40;48.80
27492;DHT22;14927;51.210;6.838;2023-05-29T06:37:27;18.50;48.90
27492;DHT22;14927;51.210;6.838;2023-05-29T06:40:13;18.50;48.80
27492;DHT22;14927;51.210;6.838;2023-05-29T06:43:00;18.60;48.80
27492;DHT22;14927;51.210;6.838;2023-05-29T06:45:44;18.60;48.80
27492;DHT22;14927;51.210;6.838;2023-05-29T06:48:35;18.70;48.80
27492;DHT22;14927;51.210;6.838;2023-05-29T06:51:20;18.70;48.70
27492;DHT22;14927;51.210;6.838;2023-05-29T06:54:08;18.70;48.70
27492;DHT22;14927;51.210;6.838;2023-05-29T06:56:52;18.90;48.70
27492;DHT22;14927;51.210;6.838;2023-05-29T06:59:38;18.90;48.80
27492;DHT22;14927;51.210;6.838;2023-05-29T07:02:23;18.90;48.40
27492;DHT22;14927;51.210;6.838;2023-05-29T07:05:07;19.00;48.30
27492;DHT22;14927;51.210;6.838;2023-05-29T07:07:52;19.10;48.10
27492;DHT22;14927;51.210;6.838;2023-05-29T07:10:37;19.00;48.10
27492;DHT22;14927;51.210;6.838;2023-05-29T07:13:22;19.10;48.00
27492;DHT22;14927;51.210;6.838;2023-05-29T07:16:09;19.20;48.00
27492;DHT22;14927;51.210;6.838;2023-05-29T07:18:54;19.20;47.90
27492;DHT22;14927;51.210;6.838;2023-05-29T07:21:38;19.40;47.70
27492;DHT22;14927;51.210;6.838;2023-05-29T07:24:23;19.30;47.50
27492;DHT22;14927;51.210;6.838;2023-05-29T07:27:08;19.40;47.50
27492;DHT22;14927;51.210;6.838;2023-05-29T07:29:52;19.50;47.60
27492;DHT22;14927;51.210;6.838;2023-05-29T07:32:37;19.50;47.50
27492;DHT22;14927;51.210;6.838;2023-05-29T07:35:22;19.60;47.40
27492;DHT22;14927;51.210;6.838;2023-05-29T07:38:07;19.70;47.40
27492;DHT22;14927;51.210;6.838;2023-05-29T07:40:51;19.70;47.40
27492;DHT22;14927;51.210;6.838;2023-05-29T07:43:36;19.70;47.30
27492;DHT22;14927;51.210;6.838;2023-05-29T07:46:21;19.80;47.30
27492;DHT22;14927;51.210;6.838;2023-05-29T07:49:06;19.80;47.80
27492;DHT22;14927;51.210;6.838;2023-05-29T07:51:50;19.80;47.20
27492;DHT22;14927;51.210;6.838;2023-05-29T07:54:35;19.90;47.10
27492;DHT22;14927;51.210;6.838;2023-05-29T07:57:20;20.00;47.00
27492;DHT22;14927;51.210;6.838;2023-05-29T08:00:05;20.10;46.90
27492;DHT22;14927;51.210;6.838;2023-05-29T08:02:51;20.10;46.90
27492;DHT22;14927;51.210;6.838;2023-05-29T08:05:37;20.20;47.00
27492;DHT22;14927;51.210;6.838;2023-05-29T08:08:21;20.30;46.70
27492;DHT22;14927;51.210;6.838;2023-05-29T08:11:06;20.30;46.50
27492;DHT22;14927;51.210;6.838;2023-05-29T08:13:51;20.40;46.70
27492;DHT22;14927;51.210;6.838;2023-05-29T08:16:35;20.40;46.50
27492;DHT22;14927;51.210;6.838;2023-05-29T08:19:21;20.50;46.90
27492;DHT22;14927;51.210;6.838;2023-05-29T08:22:06;20.60;46.10
27492;DHT22;14927;51.210;6.838;2023-05-29T08:24:50;20.60;45.90
27492;DHT22;14927;51.210;6.838;2023-05-29T08:27:35;20.70;46.10
27492;DHT22;14927;51.210;6.838;2023-05-29T08:30:20;20.80;45.80
27492;DHT22;14927;51.210;6.838;2023-05-29T08:33:05;20.80;45.80
27492;DHT22;14927;51.210;6.838;2023-05-29T08:35:50;20.90;45.70
27492;DHT22;14927;51.210;6.838;2023-05-29T08:38:36;20.90;45.40
27492;DHT22;14927;51.210;6.838;2023-05-29T08:41:36;21.00;46.00
27492;DHT22;14927;51.210;6.838;2023-05-29T08:44:24;21.00;45.90
27492;DHT22;14927;51.210;6.838;2023-05-29T08:47:10;21.10;45.20
27492;DHT22;14927;51.210;6.838;2023-05-29T08:50:01;21.10;44.90
27492;DHT22;14927;51.210;6.838;2023-05-29T08:52:47;21.20;45.00
27492;DHT22;14927;51.210;6.838;2023-05-29T08:55:32;21.20;45.10
27492;DHT22;14927;51.210;6.838;2023-05-29T08:58:21;21.30;45.10
27492;DHT22;14927;51.210;6.838;2023-05-29T09:01:06;21.30;45.00
27492;DHT22;14927;51.210;6.838;2023-05-29T09:03:51;21.40;44.80
27492;DHT22;14927;51.210;6.838;2023-05-29T09:06:36;21.50;44.90
27492;DHT22;14927;51.210;6.838;2023-05-29T09:09:29;21.50;44.50
27492;DHT22;14927;51.210;6.838;2023-05-29T09:12:16;21.60;44.40
27492;DHT22;14927;51.210;6.838;2023-05-29T09:15:01;21.60;44.40
27492;DHT22;14927;51.210;6.838;2023-05-29T09:17:51;21.70;44.40
27492;DHT22;14927;51.210;6.838;2023-05-29T09:20:37;21.80;44.50
27492;DHT22;14927;51.210;6.838;2023-05-29T09:23:22;21.80;44.60
27492;DHT22;14927;51.210;6.838;2023-05-29T09:26:07;21.90;44.50
27492;DHT22;14927;51.210;6.838;2023-05-29T09:28:51;22.00;44.40
27492;DHT22;14927;51.210;6.838;2023-05-29T09:31:42;22.00;44.10
27492;DHT22;14927;51.210;6.838;2023-05-29T09:34:31;22.00;43.80
27492;DHT22;14927;51.210;6.838;2023-05-29T09:37:15;22.10;44.00
27492;DHT22;14927;51.210;6.838;2023-05-29T09:40:02;22.10;43.80
27492;DHT22;14927;51.210;6.838;2023-05-29T09:42:48;22.20;43.50
27492;DHT22;14927;51.210;6.838;2023-05-29T09:45:35;22.30;43.70
27492;DHT22;14927;51.210;6.838;2023-05-29T09:48:24;22.40;43.60
27492;DHT22;14927;51.210;6.838;2023-05-29T09:51:20;22.40;43.80
27492;DHT22;14927;51.210;6.838;2023-05-29T09:54:16;22.50;43.60
27492;DHT22;14927;51.210;6.838;2023-05-29T09:57:01;22.60;43.20
27492;DHT22;14927;51.210;6.838;2023-05-29T09:59:49;22.70;42.90
27492;DHT22;14927;51.210;6.838;2023-05-29T10:02:36;22.70;42.80
27492;DHT22;14927;51.210;6.838;2023-05-29T10:10:30;22.90;42.80
27492;DHT22;14927;51.210;6.838;2023-05-29T10:14:13;23.00;42.10
27492;DHT22;14927;51.210;6.838;2023-05-29T10:25:14;23.30;41.80
27492;DHT22;14927;51.210;6.838;2023-05-29T10:28:10;23.30;42.00
27492;DHT22;14927;51.210;6.838;2023-05-29T10:31:15;23.30;42.20
27492;DHT22;14927;51.210;6.838;2023-05-29T10:34:23;23.30;41.60
27492;DHT22;14927;51.210;6.838;2023-05-29T10:38:32;23.40;41.50
27492;DHT22;14927;51.210;6.838;2023-05-29T10:47:23;23.60;40.70
27492;DHT22;14927;51.210;6.838;2023-05-29T10:50:09;23.70;40.50
27492;DHT22;14927;51.210;6.838;2023-05-29T10:52:54;23.70;40.70
27492;DHT22;14927;51.210;6.838;2023-05-29T10:55:40;23.80;40.60
27492;DHT22;14927;51.210;6.838;2023-05-29T10:58:26;23.90;40.60
27492;DHT22;14927;51.210;6.838;2023-05-29T11:01:12;23.90;40.60
27492;DHT22;14927;51.210;6.838;2023-05-29T11:07:04;24.10;40.40
27492;DHT22;14927;51.210;6.838;2023-05-29T11:09:50;24.20;40.20
27492;DHT22;14927;51.210;6.838;2023-05-29T11:12:56;24.30;39.80
27492;DHT22;14927;51.210;6.838;2023-05-29T11:15:41;24.40;39.10
27492;DHT22;14927;51.210;6.838;2023-05-29T11:18:26;24.50;39.50
27492;DHT22;14927;51.210;6.838;2023-05-29T11:24:24;24.60;38.50
27492;DHT22;14927;51.210;6.838;2023-05-29T11:27:09;24.70;39.00
27492;DHT22;14927;51.210;6.838;2023-05-29T11:29:55;24.70;39.10
27492;DHT22;14927;51.210;6.838;2023-05-29T11:32:40;24.80;38.90
27492;DHT22;14927;51.210;6.838;2023-05-29T11:35:29;25.00;38.80
27492;DHT22;14927;51.210;6.838;2023-05-29T11:38:15;25.00;38.40
27492;DHT22;14927;51.210;6.838;2023-05-29T11:41:01;25.10;38.00
27492;DHT22;14927;51.210;6.838;2023-05-29T11:44:00;25.20;37.60
27492;DHT22;14927;51.210;6.838;2023-05-29T11:46:46;25.30;37.40
27492;DHT22;14927;51.210;6.838;2023-05-29T11:49:35;25.40;37.60
27492;DHT22;14927;51.210;6.838;2023-05-29T11:52:20;25.50;38.00
27492;DHT22;14927;51.210;6.838;2023-05-29T11:55:07;25.70;37.90
27492;DHT22;14927;51.210;6.838;2023-05-29T11:57:56;25.80;37.00
27492;DHT22;14927;51.210;6.838;2023-05-29T12:00:43;25.90;36.60
27492;DHT22;14927;51.210;6.838;2023-05-29T12:03:28;26.00;36.60
27492;DHT22;14927;51.210;6.838;2023-05-29T12:06:13;26.10;36.50
27492;DHT22;14927;51.210;6.838;2023-05-29T12:08:58;26.20;36.10
27492;DHT22;14927;51.210;6.838;2023-05-29T12:11:42;26.40;35.90
27492;DHT22;14927;51.210;6.838;2023-05-29T12:14:27;26.50;35.70
27492;DHT22;14927;51.210;6.838;2023-05-29T12:17:12;26.70;35.70
27492;DHT22;14927;51.210;6.838;2023-05-29T12:19:56;26.70;35.10
27492;DHT22;14927;51.210;6.838;2023-05-29T12:22:43;26.90;34.90
27492;DHT22;14927;51.210;6.838;2023-05-29T12:25:28;27.00;34.30
27492;DHT22;14927;51.210;6.838;2023-05-29T12:28:17;27.10;34.30
27492;DHT22;14927;51.210;6.838;2023-05-29T12:31:05;27.20;33.80
27492;DHT22;14927;51.210;6.838;2023-05-29T12:33:49;27.40;33.70
27492;DHT22;14927;51.210;6.838;2023-05-29T12:36:34;27.50;33.90
27492;DHT22;14927;51.210;6.838;2023-05-29T12:39:19;27.60;33.70
27492;DHT22;14927;51.210;6.838;2023-05-29T12:42:04;27.70;33.40
27492;DHT22;14927;51.210;6.838;2023-05-29T12:44:50;27.90;33.20
27492;DHT22;14927;51.210;6.838;2023-05-29T12:47:34;28.00;32.40
27492;DHT22;14927;51.210;6.838;2023-05-29T12:50:25;28.10;32.40
27492;DHT22;14927;51.210;6.838;2023-05-29T12:53:12;28.20;32.10
27492;DHT22;14927;51.210;6.838;2023-05-29T12:55:57;28.30;32.00
27492;DHT22;14927;51.210;6.838;2023-05-29T12:58:42;28.40;31.80
27492;DHT22;14927;51.210;6.838;2023-05-29T13:01:27;28.60;32.10
27492;DHT22;14927;51.210;6.838;2023-05-29T13:04:11;28.70;32.00
27492;DHT22;14927;51.210;6.838;2023-05-29T13:07:00;28.90;32.40
27492;DHT22;14927;51.210;6.838;2023-05-29T13:09:44;29.00;31.70
27492;DHT22;14927;51.210;6.838;2023-05-29T13:12:29;29.20;31.50
27492;DHT22;14927;51.210;6.838;2023-05-29T13:15:14;29.30;31.30
27492;DHT22;14927;51.210;6.838;2023-05-29T13:17:59;29.50;31.10
27492;DHT22;14927;51.210;6.838;2023-05-29T13:20:43;29.70;30.60
27492;DHT22;14927;51.210;6.838;2023-05-29T13:23:28;29.90;30.30
27492;DHT22;14927;51.210;6.838;2023-05-29T13:26:13;30.00;30.20
27492;DHT22;14927;51.210;6.838;2023-05-29T13:28:57;30.10;30.00
27492;DHT22;14927;51.210;6.838;2023-05-29T13:31:42;30.30;29.70
27492;DHT22;14927;51.210;6.838;2023-05-29T13:34:27;30.40;29.50
27492;DHT22;14927;51.210;6.838;2023-05-29T13:37:14;30.50;29.40
27492;DHT22;14927;51.210;6.838;2023-05-29T13:39:59;30.70;29.30
27492;DHT22;14927;51.210;6.838;2023-05-29T13:42:43;30.80;29.20
27492;DHT22;14927;51.210;6.838;2023-05-29T13:45:28;31.00;28.90
27492;DHT22;14927;51.210;6.838;2023-05-29T13:48:13;31.10;29.40
27492;DHT22;14927;51.210;6.838;2023-05-29T13:50:57;31.20;28.50
27492;DHT22;14927;51.210;6.838;2023-05-29T13:53:42;31.30;28.30
27492;DHT22;14927;51.210;6.838;2023-05-29T13:56:27;31.40;28.20
27492;DHT22;14927;51.210;6.838;2023-05-29T13:59:11;31.40;27.90
27492;DHT22;14927;51.210;6.838;2023-05-29T14:01:56;31.40;27.90
27492;DHT22;14927;51.210;6.838;2023-05-29T14:04:40;31.40;27.70
27492;DHT22;14927;51.210;6.838;2023-05-29T14:07:26;31.40;27.50
27492;DHT22;14927;51.210;6.838;2023-05-29T14:10:11;31.40;27.60
27492;DHT22;14927;51.210;6.838;2023-05-29T14:12:56;31.40;27.50
27492;DHT22;14927;51.210;6.838;2023-05-29T14:15:41;31.30;27.30
27492;DHT22;14927;51.210;6.838;2023-05-29T14:18:25;31.30;27.30
27492;DHT22;14927;51.210;6.838;2023-05-29T14:21:10;31.20;27.20
27492;DHT22;14927;51.210;6.838;2023-05-29T14:23:54;31.20;27.20
27492;DHT22;14927;51.210;6.838;2023-05-29T14:26:39;31.10;27.20
27492;DHT22;14927;51.210;6.838;2023-05-29T14:29:25;31.00;27.40
27492;DHT22;14927;51.210;6.838;2023-05-29T14:32:10;31.00;27.40
27492;DHT22;14927;51.210;6.838;2023-05-29T14:34:55;30.80;27.40
27492;DHT22;14927;51.210;6.838;2023-05-29T14:37:41;30.70;27.60
27492;DHT22;14927;51.210;6.838;2023-05-29T14:40:27;30.60;27.60
27492;DHT22;14927;51.210;6.838;2023-05-29T14:43:11;30.50;27.60
27492;DHT22;14927;51.210;6.838;2023-05-29T14:45:56;30.40;27.80
27492;DHT22;14927;51.210;6.838;2023-05-29T14:48:41;30.20;27.80
27492;DHT22;14927;51.210;6.838;2023-05-29T14:51:31;30.10;28.10
27492;DHT22;14927;51.210;6.838;2023-05-29T14:54:17;30.10;28.00
27492;DHT22;14927;51.210;6.838;2023-05-29T14:57:01;29.90;28.30
27492;DHT22;14927;51.210;6.838;2023-05-29T14:59:46;29.80;27.90
27492;DHT22;14927;51.210;6.838;2023-05-29T15:02:31;29.70;27.90
27492;DHT22;14927;51.210;6.838;2023-05-29T15:05:16;29.60;28.10
27492;DHT22;14927;51.210;6.838;2023-05-29T15:08:03;29.60;28.10
27492;DHT22;14927;51.210;6.838;2023-05-29T15:10:47;29.50;28.30
27492;DHT22;14927;51.210;6.838;2023-05-29T15:13:32;29.40;28.20
27492;DHT22;14927;51.210;6.838;2023-05-29T15:16:17;29.40;28.30
27492;DHT22;14927;51.210;6.838;2023-05-29T15:19:01;29.30;28.50
27492;DHT22;14927;51.210;6.838;2023-05-29T15:21:46;29.20;28.60
27492;DHT22;14927;51.210;6.838;2023-05-29T15:24:31;29.20;28.90
27492;DHT22;14927;51.210;6.838;2023-05-29T15:27:15;29.10;28.70
27492;DHT22;14927;51.210;6.838;2023-05-29T15:30:14;29.00;28.40
27492;DHT22;14927;51.210;6.838;2023-05-29T15:33:00;29.00;28.40
27492;DHT22;14927;51.210;6.838;2023-05-29T15:35:45;28.90;28.60
27492;DHT22;14927;51.210;6.838;2023-05-29T15:38:30;28.90;28.80
27492;DHT22;14927;51.210;6.838;2023-05-29T15:41:16;28.80;28.80
27492;DHT22;14927;51.210;6.838;2023-05-29T15:44:01;28.80;29.00
27492;DHT22;14927;51.210;6.838;2023-05-29T15:46:45;28.80;28.50
27492;DHT22;14927;51.210;6.838;2023-05-29T15:49:30;28.80;28.20
27492;DHT22;14927;51.210;6.838;2023-05-29T15:52:15;28.80;28.30
27492;DHT22;14927;51.210;6.838;2023-05-29T15:54:59;28.70;28.80
27492;DHT22;14927;51.210;6.838;2023-05-29T15:57:44;28.70;28.40
27492;DHT22;14927;51.210;6.838;2023-05-29T16:00:29;28.70;28.40
27492;DHT22;14927;51.210;6.838;2023-05-29T16:03:13;28.80;28.50
27492;DHT22;14927;51.210;6.838;2023-05-29T16:05:58;28.80;28.20
27492;DHT22;14927;51.210;6.838;2023-05-29T16:08:43;29.00;28.30
27492;DHT22;14927;51.210;6.838;2023-05-29T16:11:27;29.10;28.10
27492;DHT22;14927;51.210;6.838;2023-05-29T16:14:12;29.10;28.00
27492;DHT22;14927;51.210;6.838;2023-05-29T16:16:57;29.10;28.00
27492;DHT22;14927;51.210;6.838;2023-05-29T16:19:41;29.10;27.80
27492;DHT22;14927;51.210;6.838;2023-05-29T16:22:26;29.10;28.00
27492;DHT22;14927;51.210;6.838;2023-05-29T16:25:11;29.10;27.80
27492;DHT22;14927;51.210;6.838;2023-05-29T16:27:55;29.10;27.70
27492;DHT22;14927;51.210;6.838;2023-05-29T16:30:40;29.20;27.80
27492;DHT22;14927;51.210;6.838;2023-05-29T16:33:24;29.30;27.50
27492;DHT22;14927;51.210;6.838;2023-05-29T16:36:09;29.50;27.50
27492;DHT22;14927;51.210;6.838;2023-05-29T16:38:54;29.70;27.10
27492;DHT22;14927;51.210;6.838;2023-05-29T16:41:39;29.80;26.90
27492;DHT22;14927;51.210;6.838;2023-05-29T16:44:24;30.00;26.80
27492;DHT22;14927;51.210;6.838;2023-05-29T16:47:09;30.20;26.30
27492;DHT22;14927;51.210;6.838;2023-05-29T16:49:53;30.40;26.10
27492;DHT22;14927;51.210;6.838;2023-05-29T16:52:38;30.50;26.10
27492;DHT22;14927;51.210;6.838;2023-05-29T16:55:23;30.60;26.20
27492;DHT22;14927;51.210;6.838;2023-05-29T16:58:08;30.70;25.60
27492;DHT22;14927;51.210;6.838;2023-05-29T17:00:53;30.80;25.30
27492;DHT22;14927;51.210;6.838;2023-05-29T17:03:38;30.90;25.00
27492;DHT22;14927;51.210;6.838;2023-05-29T17:06:23;31.00;25.20
27492;DHT22;14927;51.210;6.838;2023-05-29T17:09:08;31.10;24.60
27492;DHT22;14927;51.210;6.838;2023-05-29T17:11:53;31.10;24.60
27492;DHT22;14927;51.210;6.838;2023-05-29T17:14:38;31.20;23.90
27492;DHT22;14927;51.210;6.838;2023-05-29T17:17:23;31.20;23.30
27492;DHT22;14927;51.210;6.838;2023-05-29T17:20:08;31.20;23.20
27492;DHT22;14927;51.210;6.838;2023-05-29T17:22:53;31.30;23.00
27492;DHT22;14927;51.210;6.838;2023-05-29T17:25:37;31.40;22.80
27492;DHT22;14927;51.210;6.838;2023-05-29T17:28:22;31.40;22.70
27492;DHT22;14927;51.210;6.838;2023-05-29T17:31:07;31.60;22.60
27492;DHT22;14927;51.210;6.838;2023-05-29T17:33:51;31.60;22.50
27492;DHT22;14927;51.210;6.838;2023-05-29T17:36:36;31.60;22.40
27492;DHT22;14927;51.210;6.838;2023-05-29T17:39:20;31.80;22.40
27492;DHT22;14927;51.210;6.838;2023-05-29T17:42:05;31.80;22.10
27492;DHT22;14927;51.210;6.838;2023-05-29T17:44:51;31.90;21.60
27492;DHT22;14927;51.210;6.838;2023-05-29T17:47:36;32.00;21.40
27492;DHT22;14927;51.210;6.838;2023-05-29T17:50:21;32.00;21.30
27492;DHT22;14927;51.210;6.838;2023-05-29T17:53:05;32.10;21.00
27492;DHT22;14927;51.210;6.838;2023-05-29T17:55:50;32.10;20.90
27492;DHT22;14927;51.210;6.838;2023-05-29T17:58:34;32.20;20.80
27492;DHT22;14927;51.210;6.838;2023-05-29T18:01:20;32.20;20.70